createdAt,value
2018-12-25T00:02:18.821Z,13.47
2018-12-25T00:04:48.040Z,12.30
2018-12-25T00:07:17.582Z,32.70
2018-12-25T00:09:46.816Z,12.97
2018-12-25T00:12:16.429Z,13.10
2018-12-25T00:14:45.618Z,18.23
2018-12-25T00:17:14.863Z,13.03
2018-12-25T00:19:44.112Z,14.67
2018-12-25T00:22:13.386Z,13.63
2018-12-25T00:24:42.642Z,13.73
2018-12-25T00:27:31.077Z,17.50
2018-12-25T00:30:00.590Z,23.53
2018-12-25T00:32:30.044Z,23.13
2018-12-25T00:34:59.678Z,19.60
2018-12-25T00:37:29.118Z,18.53
2018-12-25T00:39:58.543Z,20.50
2018-12-25T00:42:31.747Z,17.53
2018-12-25T00:45:00.931Z,18.57
2018-12-25T00:47:30.515Z,15.67
2018-12-25T00:49:59.728Z,16.40
2018-12-25T00:52:28.955Z,17.67
2018-12-25T00:54:58.137Z,15.30
2018-12-25T00:57:27.866Z,15.73
2018-12-25T00:59:57.134Z,15.60
2018-12-25T01:02:26.761Z,17.87
2018-12-25T01:04:55.965Z,17.77
2018-12-25T01:07:25.736Z,15.33
2018-12-25T01:09:55.308Z,20.00
2018-12-25T01:12:24.493Z,19.50
2018-12-25T01:15:13.341Z,13.53
2018-12-25T01:17:42.791Z,18.97
2018-12-25T01:20:12.283Z,16.50
2018-12-25T01:22:41.898Z,14.77
2018-12-25T01:25:11.639Z,15.90
2018-12-25T01:27:41.224Z,19.40
2018-12-25T01:30:10.831Z,15.20
2018-12-25T01:32:40.047Z,13.57
2018-12-25T01:35:09.456Z,14.67
2018-12-25T01:37:38.633Z,14.53
2018-12-25T01:40:07.833Z,15.40
2018-12-25T01:42:37.083Z,13.37
2018-12-25T01:45:06.858Z,16.60
2018-12-25T01:47:36.138Z,15.77
2018-12-25T01:50:05.723Z,14.23
2018-12-25T01:52:34.973Z,17.47
2018-12-25T01:55:04.293Z,13.97
2018-12-25T01:57:33.938Z,17.57
2018-12-25T02:00:03.191Z,17.50
2018-12-25T02:02:32.856Z,15.27
2018-12-25T02:05:02.005Z,15.10
2018-12-25T02:07:31.592Z,16.30
2018-12-25T02:10:00.859Z,14.13
2018-12-25T02:12:30.165Z,16.70
2018-12-25T02:14:59.461Z,12.77
2018-12-25T02:17:28.707Z,15.97
2018-12-25T02:22:26.777Z,14.50
2018-12-25T02:24:56.033Z,16.73
2018-12-25T02:27:25.285Z,13.33
2018-12-25T02:29:54.731Z,14.30
2018-12-25T02:32:23.917Z,13.17
2018-12-25T02:34:53.064Z,13.57
2018-12-25T02:37:22.736Z,14.50
2018-12-25T02:39:52.299Z,16.97
2018-12-25T02:42:21.790Z,17.93
2018-12-25T02:44:50.949Z,16.77
2018-12-25T02:47:20.514Z,12.70
2018-12-25T02:49:50.323Z,13.67
2018-12-25T02:52:20.012Z,14.83
2018-12-25T02:54:49.246Z,15.03
2018-12-25T02:57:18.886Z,12.97
2018-12-25T02:59:48.440Z,13.00
2018-12-25T03:02:17.634Z,17.27
2018-12-25T03:04:46.865Z,13.40
2018-12-25T03:07:16.323Z,16.17
2018-12-25T03:09:45.863Z,12.50
2018-12-25T03:12:15.046Z,15.43
2018-12-25T03:14:44.186Z,12.00
2018-12-25T03:17:13.749Z,12.17
2018-12-25T03:19:43.366Z,18.27
2018-12-25T03:22:12.537Z,12.27
2018-12-25T03:24:42.100Z,14.23
2018-12-25T03:27:11.689Z,11.97
2018-12-25T03:29:40.839Z,13.20
2018-12-25T03:32:10.106Z,16.80
2018-12-25T03:34:39.329Z,20.53
2018-12-25T03:37:08.947Z,15.07
2018-12-25T03:39:38.531Z,14.50
2018-12-25T03:42:08.023Z,13.20
2018-12-25T03:44:37.192Z,13.70
2018-12-25T03:47:06.732Z,13.20
2018-12-25T03:49:35.961Z,12.43
2018-12-25T03:52:05.191Z,17.50
2018-12-25T03:54:34.532Z,14.37
2018-12-25T03:57:04.154Z,14.30
2018-12-25T03:59:33.397Z,12.87
2018-12-25T04:02:02.671Z,11.60
2018-12-25T04:04:31.846Z,10.40
2018-12-25T04:07:01.147Z,14.40
2018-12-25T04:09:30.661Z,11.80
2018-12-25T04:11:59.871Z,12.77
2018-12-25T04:14:29.033Z,13.87
2018-12-25T04:16:58.307Z,11.87
2018-12-25T04:19:27.934Z,13.47
2018-12-25T04:21:57.074Z,12.23
2018-12-25T04:24:26.577Z,14.23
2018-12-25T04:26:55.801Z,12.93
2018-12-25T04:29:24.973Z,12.90
2018-12-25T04:31:54.173Z,14.17
2018-12-25T04:34:23.319Z,15.53
2018-12-25T04:36:52.491Z,11.97
2018-12-25T04:39:21.756Z,14.47
2018-12-25T04:41:50.901Z,11.07
2018-12-25T04:44:20.068Z,14.10
2018-12-25T04:46:49.602Z,13.20
2018-12-25T04:49:18.770Z,11.97
2018-12-25T04:51:48.266Z,10.40
2018-12-25T04:54:17.482Z,11.13
2018-12-25T04:56:46.644Z,11.73
2018-12-25T04:59:16.154Z,13.03
2018-12-25T05:01:45.692Z,12.63
2018-12-25T05:04:15.500Z,12.20
2018-12-25T05:06:44.648Z,13.40
2018-12-25T05:09:13.830Z,12.87
2018-12-25T05:11:43.389Z,16.37
2018-12-25T05:14:12.546Z,13.53
2018-12-25T05:16:41.743Z,13.60
2018-12-25T05:19:10.904Z,11.40
2018-12-25T05:21:40.122Z,12.20
2018-12-25T05:24:09.720Z,12.93
2018-12-25T05:26:38.910Z,14.37
2018-12-25T05:29:08.078Z,14.77
2018-12-25T05:31:37.371Z,15.33
2018-12-25T05:34:06.917Z,14.10
2018-12-25T05:36:36.160Z,15.50
2018-12-25T05:39:07.438Z,13.20
2018-12-25T05:41:37.290Z,12.33
2018-12-25T05:44:06.439Z,14.77
2018-12-25T05:46:35.632Z,10.90
2018-12-25T05:49:05.278Z,10.80
2018-12-25T05:51:34.505Z,14.57
2018-12-25T05:54:03.689Z,16.03
2018-12-25T05:56:32.863Z,18.10
2018-12-25T05:59:02.098Z,13.60
2018-12-25T06:01:31.291Z,13.33
2018-12-25T06:04:00.445Z,13.20
2018-12-25T06:06:29.959Z,15.47
2018-12-25T06:08:59.135Z,11.87
2018-12-25T06:11:28.373Z,11.70
2018-12-25T06:13:57.515Z,12.40
2018-12-25T06:16:26.793Z,15.70
2018-12-25T06:18:56.029Z,9.57
2018-12-25T06:21:25.266Z,10.47
2018-12-25T06:23:54.470Z,11.97
2018-12-25T06:26:23.638Z,11.57
2018-12-25T06:28:52.807Z,12.80
2018-12-25T06:31:22.297Z,12.77
2018-12-25T06:33:51.447Z,13.73
2018-12-25T06:36:20.999Z,14.87
2018-12-25T06:38:50.799Z,12.40
2018-12-25T06:41:19.962Z,12.57
2018-12-25T06:43:49.107Z,16.47
2018-12-25T06:46:18.296Z,14.50
2018-12-25T06:48:47.448Z,15.10
2018-12-25T06:51:16.692Z,18.33
2018-12-25T06:53:45.891Z,14.87
2018-12-25T06:56:15.040Z,12.73
2018-12-25T06:58:44.202Z,18.60
2018-12-25T07:01:13.389Z,17.57
2018-12-25T07:03:42.547Z,15.50
2018-12-25T07:06:11.723Z,17.40
2018-12-25T07:08:41.295Z,16.57
2018-12-25T07:11:10.454Z,16.67
2018-12-25T07:13:39.917Z,19.50
2018-12-25T07:16:09.173Z,22.20
2018-12-25T07:18:38.399Z,20.50
2018-12-25T07:21:12.175Z,18.97
2018-12-25T07:23:38.871Z,24.27
2018-12-25T07:26:08.107Z,19.43
2018-12-25T07:28:37.265Z,18.00
2018-12-25T07:31:06.437Z,16.40
2018-12-25T07:33:35.617Z,22.60
2018-12-25T07:36:04.862Z,20.97
2018-12-25T07:38:34.047Z,20.37
2018-12-25T07:41:03.279Z,16.70
2018-12-25T07:43:32.436Z,18.10
2018-12-25T07:46:02.033Z,20.90
2018-12-25T07:48:31.289Z,20.30
2018-12-25T07:51:00.527Z,22.83
2018-12-25T07:53:29.713Z,18.13
2018-12-25T07:55:58.892Z,21.43
2018-12-25T07:58:28.141Z,18.17
2018-12-25T08:00:57.825Z,17.87
2018-12-25T08:03:26.979Z,15.17
2018-12-25T08:05:56.140Z,17.20
2018-12-25T08:08:25.404Z,16.27
2018-12-25T08:10:54.563Z,17.63
2018-12-25T08:13:23.762Z,17.17
2018-12-25T08:15:52.959Z,15.13
2018-12-25T08:18:22.147Z,18.03
2018-12-25T08:20:51.308Z,19.03
2018-12-25T08:23:20.582Z,17.97
2018-12-25T08:25:49.754Z,16.70
2018-12-25T08:28:19.294Z,17.17
2018-12-25T08:30:48.792Z,15.63
2018-12-25T08:33:18.043Z,16.97
2018-12-25T08:35:47.218Z,16.40
2018-12-25T08:38:16.418Z,14.77
2018-12-25T08:40:45.571Z,15.13
2018-12-25T08:43:14.784Z,18.07
2018-12-25T08:45:43.979Z,16.87
2018-12-25T08:48:13.152Z,16.57
2018-12-25T08:50:42.356Z,16.23
2018-12-25T08:53:11.774Z,14.23
2018-12-25T08:55:40.915Z,14.70
2018-12-25T08:58:10.113Z,17.87
2018-12-25T09:00:39.292Z,18.30
2018-12-25T09:03:08.535Z,19.37
2018-12-25T09:05:37.699Z,15.93
2018-12-25T09:08:06.895Z,17.27
2018-12-25T09:10:36.069Z,14.63
2018-12-25T09:13:05.309Z,17.53
2018-12-25T09:15:34.604Z,20.67
2018-12-25T09:18:03.829Z,18.90
2018-12-25T09:20:33.538Z,19.97
2018-12-25T09:23:02.725Z,18.60
2018-12-25T09:25:31.899Z,17.27
2018-12-25T09:28:01.073Z,16.37
2018-12-25T09:30:30.237Z,17.63
2018-12-25T09:32:59.559Z,17.47
2018-12-25T09:35:28.758Z,17.60
2018-12-25T09:37:57.959Z,15.53
2018-12-25T09:40:27.467Z,17.80
2018-12-25T09:42:56.875Z,17.33
2018-12-25T09:45:26.052Z,14.27
2018-12-25T09:47:55.574Z,15.63
2018-12-25T09:50:24.999Z,14.27
2018-12-25T09:52:54.276Z,14.27
2018-12-25T09:55:23.877Z,15.80
2018-12-25T09:57:53.162Z,15.67
2018-12-25T10:00:22.720Z,15.97
2018-12-25T10:02:51.975Z,18.30
2018-12-25T10:05:21.155Z,18.03
2018-12-25T10:07:50.357Z,14.53
2018-12-25T10:10:19.545Z,18.50
2018-12-25T10:12:48.885Z,16.13
2018-12-25T10:15:18.172Z,17.83
2018-12-25T10:17:47.340Z,16.97
2018-12-25T10:20:16.586Z,18.13
2018-12-25T10:22:45.864Z,18.77
2018-12-25T10:25:15.135Z,16.90
2018-12-25T10:28:03.496Z,16.00
2018-12-25T10:30:32.677Z,15.90
2018-12-25T10:33:01.935Z,18.20
2018-12-25T10:35:31.950Z,18.00
2018-12-25T10:38:01.161Z,15.70
2018-12-25T10:40:30.731Z,16.20
2018-12-25T10:43:00.335Z,16.03
2018-12-25T10:45:29.559Z,15.70
2018-12-25T10:47:59.018Z,14.87
2018-12-25T10:50:28.970Z,18.03
2018-12-25T10:53:00.520Z,16.13
2018-12-25T10:55:29.757Z,14.13
2018-12-25T10:57:59.030Z,13.77
2018-12-25T11:00:32.720Z,13.40
2018-12-25T11:03:20.991Z,13.60
2018-12-25T11:05:50.352Z,15.07
2018-12-25T11:08:19.902Z,14.43
2018-12-25T11:10:49.545Z,14.20
2018-12-25T11:13:18.730Z,14.93
2018-12-25T11:15:49.086Z,13.50
2018-12-25T11:18:18.694Z,13.77
2018-12-25T11:20:48.180Z,14.47
2018-12-25T11:23:17.415Z,12.93
2018-12-25T11:25:46.683Z,13.00
2018-12-25T11:28:16.460Z,11.37
2018-12-25T11:30:45.646Z,11.60
2018-12-25T11:33:14.908Z,10.57
2018-12-25T11:35:44.091Z,11.40
2018-12-25T11:38:13.263Z,12.37
2018-12-25T11:40:42.930Z,12.00
2018-12-25T11:43:12.180Z,11.47
2018-12-25T11:45:41.339Z,10.70
2018-12-25T11:48:10.541Z,13.13
2018-12-25T11:50:39.792Z,11.20
2018-12-25T11:53:09.401Z,12.90
2018-12-25T11:55:39.010Z,14.37
2018-12-25T11:58:08.263Z,13.40
2018-12-25T12:00:37.523Z,14.20
2018-12-25T12:03:06.717Z,13.63
2018-12-25T12:05:55.109Z,13.57
2018-12-25T12:08:24.332Z,14.77
2018-12-25T12:10:53.829Z,12.60
2018-12-25T12:13:23.066Z,10.80
2018-12-25T12:15:52.743Z,13.40
2018-12-25T12:18:22.563Z,11.63
2018-12-25T12:20:51.839Z,11.57
2018-12-25T12:23:21.547Z,10.30
2018-12-25T12:25:50.795Z,12.60
2018-12-25T12:28:19.973Z,10.53
2018-12-25T12:30:49.165Z,11.47
2018-12-25T12:33:18.317Z,12.00
2018-12-25T12:35:47.590Z,11.80
2018-12-25T12:38:16.762Z,9.90
2018-12-25T12:40:45.930Z,10.20
2018-12-25T12:43:15.176Z,9.87
2018-12-25T12:45:44.367Z,12.33
2018-12-25T12:48:13.557Z,10.53
2018-12-25T12:50:42.800Z,13.27
2018-12-25T12:53:12.372Z,11.90
2018-12-25T12:55:41.632Z,10.43
2018-12-25T12:58:10.961Z,11.83
2018-12-25T13:00:40.238Z,11.40
2018-12-25T13:03:09.406Z,13.23
2018-12-25T13:05:38.959Z,11.80
2018-12-25T13:08:08.158Z,11.07
2018-12-25T13:10:37.334Z,10.50
2018-12-25T13:13:06.650Z,9.90
2018-12-25T13:15:35.851Z,9.93
2018-12-25T13:18:04.985Z,9.80
2018-12-25T13:20:34.562Z,11.53
2018-12-25T13:23:03.755Z,9.97
2018-12-25T13:25:33.387Z,12.03
2018-12-25T13:28:02.617Z,10.10
2018-12-25T13:30:31.864Z,10.30
2018-12-25T13:33:01.375Z,10.00
2018-12-25T13:35:30.615Z,8.37
2018-12-25T13:37:59.872Z,10.50
2018-12-25T13:40:29.107Z,8.90
2018-12-25T13:42:58.375Z,10.80
2018-12-25T13:45:27.647Z,8.70
2018-12-25T13:47:56.963Z,10.77
2018-12-25T13:50:26.574Z,9.93
2018-12-25T13:53:02.774Z,9.03
2018-12-25T13:55:26.846Z,8.80
2018-12-25T13:57:56.438Z,7.73
2018-12-25T14:00:25.640Z,7.77
2018-12-25T14:02:54.923Z,7.60
2018-12-25T14:05:24.076Z,8.97
2018-12-25T14:07:53.250Z,9.20
2018-12-25T14:10:22.407Z,7.50
2018-12-25T14:12:51.577Z,7.93
2018-12-25T14:15:20.815Z,8.37
2018-12-25T14:17:50.285Z,8.70
2018-12-25T14:20:19.435Z,8.63
2018-12-25T14:22:49.397Z,10.30
2018-12-25T14:25:18.899Z,8.40
2018-12-25T14:27:48.135Z,9.20
2018-12-25T14:30:17.612Z,7.27
2018-12-25T14:32:46.898Z,8.33
2018-12-25T14:35:16.141Z,9.67
2018-12-25T14:37:45.423Z,8.87
2018-12-25T14:40:14.612Z,10.50
2018-12-25T14:42:44.178Z,10.20
2018-12-25T14:45:13.365Z,8.50
2018-12-25T14:47:42.508Z,8.40
2018-12-25T14:50:11.933Z,7.10
2018-12-25T14:52:41.625Z,6.60
2018-12-25T14:55:10.869Z,5.87
2018-12-25T14:57:40.140Z,7.87
2018-12-25T15:00:10.206Z,8.83
2018-12-25T15:02:39.406Z,8.10
2018-12-25T15:05:08.667Z,9.17
2018-12-25T15:07:37.864Z,8.30
2018-12-25T15:10:07.905Z,6.80
2018-12-25T15:12:37.091Z,8.17
2018-12-25T15:15:06.784Z,6.53
2018-12-25T15:17:35.934Z,7.83
2018-12-25T15:20:05.473Z,6.53
2018-12-25T15:22:34.666Z,7.40
2018-12-25T15:25:04.232Z,7.17
2018-12-25T15:27:33.468Z,7.67
2018-12-25T15:30:03.220Z,7.03
2018-12-25T15:32:32.351Z,9.50
2018-12-25T15:35:01.790Z,7.63
2018-12-25T15:37:31.170Z,9.83
2018-12-25T15:40:00.358Z,8.80
2018-12-25T15:42:30.064Z,10.13
2018-12-25T15:44:59.248Z,8.47
2018-12-25T15:47:28.617Z,9.80
2018-12-25T15:49:57.802Z,12.03
2018-12-25T15:52:27.024Z,11.47
2018-12-25T15:54:56.332Z,11.80
2018-12-25T15:57:29.849Z,12.70
2018-12-25T16:00:03.596Z,10.43
2018-12-25T16:02:32.804Z,13.67
2018-12-25T16:05:02.098Z,15.17
2018-12-25T16:07:31.291Z,14.97
2018-12-25T16:10:00.569Z,15.63
2018-12-25T16:12:29.788Z,15.70
2018-12-25T16:14:59.459Z,14.27
2018-12-25T16:17:29.025Z,14.60
2018-12-25T16:19:58.211Z,14.37
2018-12-25T16:22:27.934Z,14.10
2018-12-25T16:24:57.097Z,13.13
2018-12-25T16:27:26.325Z,15.47
2018-12-25T16:29:55.646Z,15.07
2018-12-25T16:32:25.372Z,14.53
2018-12-25T16:34:54.606Z,16.67
2018-12-25T16:37:23.954Z,17.00
2018-12-25T16:39:53.116Z,14.73
2018-12-25T16:42:22.374Z,15.27
2018-12-25T16:44:51.574Z,17.10
2018-12-25T16:47:20.752Z,18.47
2018-12-25T16:49:50.449Z,16.13
2018-12-25T16:52:19.924Z,19.53
2018-12-25T16:54:49.076Z,16.30
2018-12-25T16:57:18.262Z,17.50
2018-12-25T16:59:47.796Z,17.43
2018-12-25T17:02:17.030Z,17.23
2018-12-25T17:04:46.280Z,15.23
2018-12-25T17:07:15.820Z,22.73
2018-12-25T17:09:45.154Z,16.33
2018-12-25T17:12:14.363Z,18.73
2018-12-25T17:14:43.647Z,17.97
2018-12-25T17:17:12.912Z,16.63
2018-12-25T17:19:42.707Z,16.57
2018-12-25T17:22:11.984Z,17.40
2018-12-25T17:24:41.211Z,17.30
2018-12-25T17:27:10.549Z,16.17
2018-12-25T17:29:39.844Z,20.20
2018-12-25T17:32:09.005Z,18.60
2018-12-25T17:34:38.173Z,18.00
2018-12-25T17:37:07.436Z,20.53
2018-12-25T17:39:36.747Z,22.00
2018-12-25T17:42:05.925Z,20.33
2018-12-25T17:44:35.136Z,21.73
2018-12-25T17:47:04.757Z,19.00
2018-12-25T17:49:34.007Z,22.37
2018-12-25T17:52:03.305Z,22.83
2018-12-25T17:54:32.564Z,25.97
2018-12-25T17:57:01.805Z,22.77
2018-12-25T17:59:30.999Z,23.30
2018-12-25T18:02:00.181Z,25.37
2018-12-25T18:04:29.432Z,28.90
2018-12-25T18:06:58.649Z,26.50
2018-12-25T18:09:28.408Z,23.60
2018-12-25T18:11:57.729Z,21.90
2018-12-25T18:14:26.971Z,25.33
2018-12-25T18:16:56.552Z,22.17
2018-12-25T18:19:26.059Z,25.00
2018-12-25T18:21:55.415Z,26.33
2018-12-25T18:24:24.618Z,22.83
2018-12-25T18:26:53.785Z,26.43
2018-12-25T18:29:23.349Z,27.50
2018-12-25T18:31:52.526Z,26.37
2018-12-25T18:34:21.705Z,36.17
2018-12-25T18:36:50.902Z,30.90
2018-12-25T18:39:20.068Z,28.70
2018-12-25T18:41:49.219Z,28.47
2018-12-25T18:44:18.744Z,27.90
2018-12-25T18:46:47.934Z,27.53
2018-12-25T18:49:17.233Z,22.70
2018-12-25T18:51:46.438Z,27.93
2018-12-25T18:54:15.962Z,23.10
2018-12-25T18:56:45.153Z,26.30
2018-12-25T18:59:14.700Z,26.77
2018-12-25T19:01:43.941Z,27.07
2018-12-25T19:04:13.462Z,30.07
2018-12-25T19:06:42.840Z,32.50
2018-12-25T19:09:12.574Z,25.47
2018-12-25T19:11:41.848Z,28.47
2018-12-25T19:14:11.246Z,27.83
2018-12-25T19:16:40.876Z,22.93
2018-12-25T19:19:10.068Z,28.33
2018-12-25T19:21:39.258Z,24.83
2018-12-25T19:24:08.834Z,24.37
2018-12-25T19:26:38.027Z,24.30
2018-12-25T19:29:07.207Z,26.53
2018-12-25T19:31:38.200Z,25.33
2018-12-25T19:34:07.443Z,25.03
2018-12-25T19:36:36.943Z,25.77
2018-12-25T19:39:07.688Z,24.37
2018-12-25T19:41:36.947Z,21.37
2018-12-25T19:44:06.417Z,24.03
2018-12-25T19:46:36.063Z,27.23
2018-12-25T19:49:05.230Z,25.77
2018-12-25T19:51:34.410Z,28.13
2018-12-25T19:54:03.679Z,25.60
2018-12-25T19:56:32.864Z,26.23
2018-12-25T19:59:02.243Z,24.70
2018-12-25T20:01:31.594Z,25.10
2018-12-25T20:04:50.735Z,25.33
2018-12-25T20:08:03.605Z,22.80
2018-12-25T20:10:42.971Z,26.03
2018-12-25T20:13:48.409Z,27.93
2018-12-25T20:16:54.475Z,27.60
2018-12-25T20:19:56.346Z,27.70
2018-12-25T20:23:02.619Z,29.20
2018-12-25T20:26:04.303Z,28.90
2018-12-25T20:29:16.597Z,29.00
2018-12-25T20:32:14.867Z,24.10
2018-12-25T20:35:10.998Z,31.27
2018-12-25T20:38:33.877Z,28.20
2018-12-25T20:41:44.318Z,31.77
2018-12-25T20:44:52.768Z,31.20
2018-12-25T20:47:52.598Z,29.00
2018-12-25T20:51:00.051Z,32.40
2018-12-25T20:54:13.304Z,33.33
2018-12-25T20:57:18.320Z,26.63
2018-12-25T21:00:23.188Z,30.20
2018-12-25T21:03:39.908Z,31.00
2018-12-25T21:06:49.230Z,30.33
2018-12-25T21:09:54.877Z,26.23
2018-12-25T21:12:59.277Z,28.00
2018-12-25T21:16:01.784Z,30.33
2018-12-25T21:19:14.221Z,31.80
2018-12-25T21:22:14.915Z,27.87
2018-12-25T21:25:20.251Z,33.67
2018-12-25T21:27:48.164Z,28.90
2018-12-25T21:30:17.345Z,24.83
2018-12-25T21:32:46.847Z,28.60
2018-12-25T21:35:19.447Z,28.47
2018-12-25T21:37:49.228Z,27.93
2018-12-25T21:40:18.498Z,31.53
2018-12-25T21:42:48.382Z,28.60
2018-12-25T21:45:18.093Z,29.87
2018-12-25T21:47:48.106Z,28.27
2018-12-25T21:50:17.290Z,30.97
2018-12-25T21:52:46.491Z,26.60
2018-12-25T21:55:18.971Z,28.03
2018-12-25T21:57:48.981Z,23.83
2018-12-25T22:00:19.224Z,30.50
2018-12-25T22:02:48.520Z,26.50
2018-12-25T22:05:17.847Z,26.77
2018-12-25T22:07:47.076Z,32.90
2018-12-25T22:10:16.439Z,35.40
2018-12-25T22:12:46.057Z,27.40
2018-12-25T22:15:16.177Z,27.00
2018-12-25T22:17:45.401Z,30.90
2018-12-25T22:20:22.466Z,29.47
2018-12-25T22:22:51.944Z,31.27
2018-12-25T22:25:27.042Z,30.87
2018-12-25T22:27:52.383Z,31.37
2018-12-25T22:30:21.894Z,31.03
2018-12-25T22:32:51.205Z,30.23
2018-12-25T22:35:20.436Z,27.23
2018-12-25T22:37:49.671Z,28.57
2018-12-25T22:40:19.023Z,27.17
2018-12-25T22:42:48.400Z,30.37
2018-12-25T22:45:17.600Z,31.10
2018-12-25T22:47:46.844Z,31.80
2018-12-25T22:50:16.159Z,36.73
2018-12-25T22:52:45.420Z,32.30
2018-12-25T22:55:14.611Z,31.87
2018-12-25T22:57:43.809Z,27.13
2018-12-25T23:00:13.642Z,33.23
2018-12-25T23:02:43.224Z,31.60
2018-12-25T23:05:12.592Z,26.63
2018-12-25T23:07:42.142Z,28.40
2018-12-25T23:10:11.398Z,27.20
2018-12-25T23:12:40.682Z,33.20
2018-12-25T23:15:10.099Z,30.03
2018-12-25T23:17:39.440Z,26.50
2018-12-25T23:20:09.437Z,28.13
2018-12-25T23:22:38.598Z,28.30
2018-12-25T23:25:07.786Z,29.03
2018-12-25T23:27:37.266Z,29.67
2018-12-25T23:30:06.713Z,29.73
2018-12-25T23:32:36.211Z,35.07
2018-12-25T23:35:06.280Z,31.57
2018-12-25T23:37:35.712Z,31.07
2018-12-25T23:40:05.899Z,31.50
2018-12-25T23:42:35.562Z,30.83
2018-12-25T23:45:05.498Z,26.57
2018-12-25T23:47:35.078Z,33.60
2018-12-25T23:50:04.709Z,30.30
2018-12-25T23:52:33.960Z,27.37
2018-12-25T23:55:03.135Z,23.87
2018-12-25T23:57:32.414Z,26.73
